Time;durP1;ratioP1;P1;durP2;ratioP2;P2;SDS_P1;SDS_P2;PMS_P1;PMS_P2;Temp;Humidity;BMP_temperature;BMP_pressure;BME280_temperature;BME280_humidity;BME280_pressure;Samples;Min_cycle;Max_cycle;Signal;HPM_P1;HPM_P2
2022/10/11 00:00:51;;;;;;;6.50;3.97;;;8.80;99.90;8.80;100953.00;;;;4954377;28;88758;-60
2022/10/11 00:03:17;;;;;;;5.80;3.17;;;8.90;99.90;8.90;100955.00;;;;4954265;28;87736;-61
2022/10/11 00:05:43;;;;;;;6.17;3.30;;;8.90;99.90;8.90;100964.00;;;;4948235;28;99274;-61
2022/10/11 00:08:10;;;;;;;4.67;3.53;;;9.00;99.90;9.00;100966.00;;;;4955836;28;89085;-59
2022/10/11 00:10:36;;;;;;;3.33;2.20;;;9.00;99.90;9.10;100979.00;;;;4946441;28;87765;-61
2022/10/11 00:13:03;;;;;;;5.40;3.40;;;9.10;99.90;9.20;100987.00;;;;4952690;28;87748;-61
2022/10/11 00:15:29;;;;;;;5.03;2.60;;;9.20;99.90;9.30;100985.00;;;;4953782;28;87582;-61
2022/10/11 00:17:55;;;;;;;6.33;3.20;;;9.30;99.90;9.40;100989.00;;;;4947124;28;117078;-61
2022/10/11 00:20:21;;;;;;;5.10;2.30;;;9.40;99.90;9.50;100983.00;;;;4952106;28;117010;-61
2022/10/11 00:22:48;;;;;;;5.17;2.47;;;9.50;99.90;9.70;100982.00;;;;4953150;28;109745;-61
2022/10/11 00:25:14;;;;;;;3.83;3.20;;;9.70;99.90;9.80;100986.00;;;;4947142;28;88860;-62
2022/10/11 00:27:39;;;;;;;3.43;3.13;;;9.80;99.90;9.90;100992.00;;;;4941959;28;109478;-61
2022/10/11 00:30:07;;;;;;;4.27;2.50;;;9.90;99.90;10.00;100993.00;;;;4950491;28;115372;-61
2022/10/11 00:32:34;;;;;;;3.80;2.53;;;10.10;99.90;10.10;100989.00;;;;4947796;28;87697;-62
2022/10/11 00:35:05;;;;;;;3.57;2.97;;;10.10;99.90;10.20;100996.00;;;;4950671;28;87776;-61
2022/10/11 00:37:35;;;;;;;9.73;2.97;;;10.20;99.90;10.30;101011.00;;;;4955269;28;88964;-62
2022/10/11 00:40:03;;;;;;;5.33;2.70;;;10.30;99.90;10.30;101014.00;;;;4957641;28;88044;-61
2022/10/11 00:42:29;;;;;;;5.00;2.83;;;10.40;99.90;10.40;101017.00;;;;4951898;28;87129;-61
2022/10/11 00:45:30;;;;;;;2.97;2.07;;;10.40;99.90;10.50;101022.00;;;;4951540;28;108504;-61
2022/10/11 00:48:11;;;;;;;3.03;2.60;;;10.50;99.90;10.60;101026.00;;;;4946355;28;88960;-61
2022/10/11 00:50:36;;;;;;;4.27;2.20;;;10.60;99.90;10.70;101033.00;;;;4953870;28;88620;-60
2022/10/11 00:53:09;;;;;;;4.30;2.73;;;10.70;99.90;10.70;101027.00;;;;4949716;28;109465;-61
2022/10/11 00:55:50;;;;;;;7.10;2.67;;;10.70;99.90;10.80;101036.00;;;;4954385;28;88012;-61
2022/10/11 00:58:17;;;;;;;4.43;2.50;;;10.80;99.90;10.90;101038.00;;;;4967709;28;111290;-62
2022/10/11 01:00:43;;;;;;;2.80;2.17;;;10.90;99.90;11.00;101045.00;;;;4950471;28;117179;-61
2022/10/11 01:03:09;;;;;;;2.47;2.27;;;11.00;99.90;11.00;101036.00;;;;4947740;28;110547;-61
2022/10/11 01:05:37;;;;;;;2.23;1.63;;;11.00;99.90;11.00;101049.00;;;;4953309;28;87814;-61
2022/10/11 01:08:05;;;;;;;3.47;2.13;;;11.10;99.90;11.10;101052.00;;;;4947012;28;116876;-61
2022/10/11 01:10:31;;;;;;;2.37;1.93;;;11.10;99.90;11.10;101056.00;;;;4953462;28;88073;-61
2022/10/11 01:13:39;;;;;;;1.43;1.30;;;11.10;99.90;11.10;101065.00;;;;4948840;28;110415;-61
2022/10/11 01:16:11;;;;;;;1.60;1.40;;;11.30;99.90;11.10;101068.00;;;;4952266;28;89046;-61
2022/10/11 01:19:11;;;;;;;3.17;2.03;;;11.20;99.90;11.10;101072.00;;;;4954821;28;88850;-61
2022/10/11 01:21:48;;;;;;;2.50;2.07;;;11.20;99.90;11.10;101075.00;;;;4967811;28;107430;-61
2022/10/11 01:24:51;;;;;;;3.13;2.13;;;11.20;99.90;11.00;101072.00;;;;4949925;28;87922;-61
2022/10/11 01:27:38;;;;;;;2.97;1.93;;;11.10;99.90;11.10;101075.00;;;;4946371;28;87627;-60
2022/10/11 01:30:25;;;;;;;3.83;2.07;;;11.10;99.90;11.10;101079.00;;;;4949386;28;111744;-60
2022/10/11 01:33:23;;;;;;;2.33;2.00;;;11.20;99.90;11.20;101085.00;;;;4969930;28;92245;-61
2022/10/11 01:35:57;;;;;;;4.80;2.47;;;11.20;99.90;11.20;101086.00;;;;4956673;28;100536;-61
2022/10/11 01:38:33;;;;;;;2.67;2.10;;;11.20;99.90;11.30;101094.00;;;;4967775;28;99562;-61
2022/10/11 01:41:08;;;;;;;2.30;1.93;;;11.30;99.90;11.40;101091.00;;;;4967022;28;89585;-61
2022/10/11 01:43:36;;;;;;;3.07;2.30;;;11.30;99.90;11.40;101091.00;;;;4951997;28;88764;-61
2022/10/11 01:46:03;;;;;;;2.33;1.83;;;11.40;99.90;11.40;101100.00;;;;4953025;28;110350;-61
2022/10/11 01:48:28;;;;;;;3.00;2.20;;;11.40;99.90;11.50;101107.00;;;;4951140;28;87803;-61
2022/10/11 01:50:56;;;;;;;2.47;1.90;;;11.50;99.90;11.50;101108.00;;;;4946588;28;114490;-62
2022/10/11 01:54:02;;;;;;;1.83;1.50;;;11.50;99.90;11.50;101114.00;;;;4955000;28;87983;-61
2022/10/11 01:56:52;;;;;;;8.23;2.23;;;11.50;99.90;11.50;101120.00;;;;4964714;28;94421;-61
2022/10/11 01:59:40;;;;;;;3.10;2.07;;;11.60;99.90;11.60;101125.00;;;;4946583;28;87540;-61
2022/10/11 02:02:39;;;;;;;2.57;1.73;;;11.60;99.90;11.50;101130.00;;;;4953536;28;88339;-61
2022/10/11 02:05:25;;;;;;;2.33;1.97;;;11.60;99.90;11.60;101128.00;;;;4965484;28;109019;-61
2022/10/11 02:08:19;;;;;;;3.50;1.80;;;11.60;99.90;11.50;101132.00;;;;4952971;28;104286;-61
2022/10/11 02:11:00;;;;;;;3.47;2.13;;;11.60;99.90;11.50;101135.00;;;;4944108;28;88694;-61
2022/10/11 02:13:43;;;;;;;2.27;2.03;;;11.60;99.90;11.50;101127.00;;;;4948844;28;105623;-59
2022/10/11 02:16:18;;;;;;;3.63;2.30;;;11.50;99.90;11.40;101137.00;;;;4952779;28;109086;-61
2022/10/11 02:18:50;;;;;;;3.77;1.67;;;11.50;99.90;11.30;101141.00;;;;4949426;28;87708;-61
2022/10/11 02:21:21;;;;;;;1.43;1.33;;;11.40;99.90;11.20;101145.00;;;;4954049;28;88002;-61
2022/10/11 02:24:08;;;;;;;2.27;2.03;;;11.30;99.90;11.10;101153.00;;;;4951484;28;107784;-61
2022/10/11 02:26:35;;;;;;;2.07;1.77;;;11.30;99.90;11.00;101147.00;;;;4951503;28;102806;-60
2022/10/11 02:29:05;;;;;;;1.57;1.47;;;11.10;99.90;10.90;101157.00;;;;4952265;28;110512;-61
2022/10/11 02:31:33;;;;;;;6.30;1.90;;;11.20;99.90;10.70;101153.00;;;;4951882;28;87416;-60
2022/10/11 02:34:16;;;;;;;3.53;2.13;;;10.80;99.90;10.50;101150.00;;;;4946565;28;118029;-61
2022/10/11 02:37:09;;;;;;;5.23;1.47;;;10.70;99.90;10.40;101152.00;;;;4953128;28;88792;-61
2022/10/11 02:39:42;;;;;;;1.77;1.10;;;10.60;99.90;10.30;101164.00;;;;4962611;28;95639;-61
2022/10/11 02:42:29;;;;;;;1.67;1.30;;;10.40;99.90;10.20;101168.00;;;;4949888;28;87549;-61
2022/10/11 02:45:05;;;;;;;2.50;1.60;;;10.30;99.90;10.10;101165.00;;;;4963700;28;87741;-61
2022/10/11 02:47:31;;;;;;;1.47;1.37;;;10.20;99.90;10.00;101167.00;;;;4946939;28;88477;-60
2022/10/11 02:50:01;;;;;;;2.90;1.40;;;10.10;99.90;9.90;101173.00;;;;4941101;28;111265;-61
2022/10/11 02:52:26;;;;;;;1.87;1.67;;;10.00;99.90;9.80;101173.00;;;;4938091;28;87974;-61
2022/10/11 02:54:52;;;;;;;2.83;1.67;;;9.90;99.90;9.70;101165.00;;;;4945665;28;88326;-62
2022/10/11 02:57:18;;;;;;;1.43;1.30;;;9.80;99.90;9.60;101174.00;;;;4949930;28;116423;-61
2022/10/11 02:59:44;;;;;;;1.50;1.40;;;9.70;99.90;9.60;101183.00;;;;4949821;28;110171;-61
2022/10/11 03:02:10;;;;;;;2.10;1.10;;;9.70;99.90;9.40;101174.00;;;;4946908;28;88948;-62
2022/10/11 03:04:35;;;;;;;6.97;1.20;;;9.60;99.90;9.40;101182.00;;;;4947605;28;106615;-64
2022/10/11 03:07:01;;;;;;;1.90;1.03;;;9.50;99.90;9.30;101179.00;;;;4951701;28;118153;-61
2022/10/11 03:09:27;;;;;;;2.03;0.97;;;9.40;99.90;9.20;101184.00;;;;4943042;28;109406;-61
2022/10/11 03:11:52;;;;;;;1.07;1.00;;;9.30;99.90;9.20;101192.00;;;;4946235;28;109584;-61
2022/10/11 03:14:18;;;;;;;2.50;1.27;;;9.30;99.90;9.10;101190.00;;;;4954202;28;117477;-61
2022/10/11 03:16:44;;;;;;;2.03;0.87;;;9.20;99.90;9.00;101199.00;;;;4947327;28;105391;-61
2022/10/11 03:19:10;;;;;;;1.93;1.03;;;9.10;99.90;9.00;101198.00;;;;4952282;28;108509;-61
2022/10/11 03:21:36;;;;;;;2.47;1.03;;;9.10;99.90;8.90;101203.00;;;;4955898;28;87670;-61
2022/10/11 03:24:02;;;;;;;2.53;1.33;;;9.00;99.90;8.80;101214.00;;;;4949505;28;118015;-59
2022/10/11 03:26:28;;;;;;;1.70;1.13;;;9.00;99.90;8.80;101207.00;;;;4952708;28;106361;-61
2022/10/11 03:28:54;;;;;;;1.20;1.10;;;8.90;99.90;8.70;101213.00;;;;4953023;28;87984;-61
2022/10/11 03:31:20;;;;;;;2.50;1.50;;;8.80;99.90;8.60;101211.00;;;;4947258;28;87632;-61
2022/10/11 03:33:46;;;;;;;1.57;1.47;;;8.70;99.90;8.50;101223.00;;;;4954584;28;87683;-61
2022/10/11 03:36:12;;;;;;;2.10;1.67;;;8.60;99.90;8.40;101230.00;;;;4952133;28;91365;-61
2022/10/11 03:38:38;;;;;;;1.67;1.10;;;8.50;99.90;8.30;101244.00;;;;4949024;28;87998;-60
2022/10/11 03:41:04;;;;;;;5.57;1.77;;;8.40;99.90;8.20;101236.00;;;;4955324;28;87606;-61
2022/10/11 03:43:29;;;;;;;4.13;1.57;;;8.30;99.90;8.10;101238.00;;;;4952648;28;88129;-61
2022/10/11 03:45:55;;;;;;;4.87;1.40;;;8.20;99.90;8.00;101241.00;;;;4947217;28;112076;-61
2022/10/11 03:48:21;;;;;;;1.63;1.43;;;8.10;99.90;7.90;101241.00;;;;4952738;28;110298;-58
2022/10/11 03:50:48;;;;;;;1.63;1.23;;;8.00;99.90;7.80;101247.00;;;;4947141;28;88901;-60
2022/10/11 03:53:14;;;;;;;3.33;1.27;;;8.00;99.90;7.70;101244.00;;;;4953749;28;112202;-61
2022/10/11 03:55:40;;;;;;;1.63;1.53;;;7.90;99.90;7.60;101246.00;;;;4954222;28;106512;-61
2022/10/11 03:58:07;;;;;;;0.97;0.90;;;8.10;99.90;7.50;101243.00;;;;4953178;28;87630;-61
2022/10/11 04:00:34;;;;;;;2.47;1.40;;;7.70;99.90;7.50;101240.00;;;;4949312;28;89995;-61
2022/10/11 04:02:59;;;;;;;1.13;1.03;;;7.60;99.90;7.40;101253.00;;;;4955766;28;87918;-61
2022/10/11 04:05:25;;;;;;;2.33;0.93;;;7.60;99.90;7.40;101255.00;;;;4949977;28;116386;-61
2022/10/11 04:07:51;;;;;;;1.43;1.23;;;7.70;99.90;7.30;101259.00;;;;4944291;28;109673;-61
2022/10/11 04:10:17;;;;;;;1.43;1.13;;;7.50;99.90;7.30;101259.00;;;;4949350;28;106978;-62
2022/10/11 04:12:43;;;;;;;2.63;1.40;;;7.50;99.90;7.20;101264.00;;;;4946196;28;118271;-61
2022/10/11 04:15:12;;;;;;;1.60;1.00;;;7.60;99.90;7.10;101267.00;;;;4947510;28;116520;-61
2022/10/11 04:17:38;;;;;;;3.07;1.07;;;7.30;99.90;7.00;101263.00;;;;4955400;28;87822;-61
2022/10/11 04:20:05;;;;;;;2.30;1.13;;;7.20;99.90;7.00;101268.00;;;;4952320;28;88101;-61
2022/10/11 04:22:32;;;;;;;1.60;0.90;;;7.10;99.90;6.90;101268.00;;;;4949591;28;109333;-61
2022/10/11 04:24:58;;;;;;;1.83;1.13;;;7.00;99.90;6.80;101283.00;;;;4954078;28;88507;-60
2022/10/11 04:27:29;;;;;;;5.13;1.20;;;7.30;99.90;6.80;101270.00;;;;4946824;28;87841;-61
2022/10/11 04:29:54;;;;;;;2.53;0.63;;;6.90;99.90;6.70;101273.00;;;;4942114;28;87829;-61
2022/10/11 04:32:20;;;;;;;1.00;0.90;;;7.20;99.90;6.60;101283.00;;;;4938122;28;112735;-61
2022/10/11 04:34:46;;;;;;;1.07;0.97;;;6.80;99.90;6.60;101279.00;;;;4949326;28;116753;-61
2022/10/11 04:37:12;;;;;;;1.33;1.23;;;6.70;99.90;6.50;101285.00;;;;4951274;28;109494;-58
2022/10/11 04:39:37;;;;;;;1.17;1.00;;;6.70;99.90;6.40;101284.00;;;;4953250;28;88584;-59
2022/10/11 04:42:03;;;;;;;2.93;1.40;;;6.60;99.90;6.40;101287.00;;;;4947126;28;117793;-61
2022/10/11 04:44:30;;;;;;;1.83;1.63;;;6.60;99.90;6.40;101276.00;;;;4949206;28;118154;-61
2022/10/11 04:46:55;;;;;;;2.07;1.10;;;7.00;99.90;6.40;101287.00;;;;4951978;28;99927;-61
2022/10/11 04:49:21;;;;;;;2.17;1.40;;;6.70;99.90;6.30;101295.00;;;;4946341;28;108931;-61
2022/10/11 04:51:47;;;;;;;1.90;1.10;;;6.60;99.90;6.30;101303.00;;;;4945816;28;87903;-61
2022/10/11 04:54:13;;;;;;;1.20;1.10;;;7.00;99.90;6.30;101307.00;;;;4949381;28;118823;-59
2022/10/11 04:56:38;;;;;;;3.50;1.07;;;6.50;99.90;6.30;101306.00;;;;4947209;28;87533;-61
2022/10/11 04:59:04;;;;;;;10.13;4.03;;;6.50;99.90;6.40;101312.00;;;;4950923;28;109200;-60
2022/10/11 05:01:30;;;;;;;1.30;1.20;;;6.60;99.90;6.40;101313.00;;;;4952639;28;116399;-61
2022/10/11 05:03:55;;;;;;;2.20;1.93;;;6.60;99.90;6.40;101309.00;;;;4952965;28;116981;-61
2022/10/11 05:06:21;;;;;;;5.43;1.97;;;6.90;99.90;6.50;101315.00;;;;4952184;28;88124;-61
2022/10/11 05:08:47;;;;;;;2.10;1.20;;;6.60;99.90;6.50;101319.00;;;;4951590;28;107451;-61
2022/10/11 05:11:14;;;;;;;3.30;1.80;;;6.60;99.90;6.50;101321.00;;;;4943802;28;116790;-61
2022/10/11 05:13:40;;;;;;;1.23;1.13;;;6.60;99.90;6.40;101323.00;;;;4954588;28;87696;-60
2022/10/11 05:16:07;;;;;;;2.97;1.17;;;6.60;99.90;6.40;101323.00;;;;4949238;28;94615;-61
2022/10/11 05:18:33;;;;;;;0.87;0.83;;;7.00;99.90;6.40;101326.00;;;;4946873;28;87817;-61
2022/10/11 05:21:38;;;;;;;3.77;1.33;;;6.60;99.90;6.40;101335.00;;;;4954286;28;103542;-61
2022/10/11 05:24:04;;;;;;;1.97;1.23;;;6.60;99.90;6.50;101347.00;;;;4936188;28;88129;-61
2022/10/11 05:26:29;;;;;;;4.60;2.17;;;6.70;99.90;6.50;101343.00;;;;4942222;28;96792;-61
2022/10/11 05:28:56;;;;;;;3.20;1.50;;;6.60;99.90;6.50;101349.00;;;;4944948;28;88552;-61
2022/10/11 05:31:21;;;;;;;1.47;1.37;;;7.00;99.90;6.50;101357.00;;;;4947420;28;99392;-61
2022/10/11 05:33:47;;;;;;;2.77;1.43;;;6.70;99.90;6.60;101359.00;;;;4947759;28;117063;-61
2022/10/11 05:36:13;;;;;;;5.27;1.10;;;7.00;99.90;6.60;101363.00;;;;4953944;28;87744;-60
2022/10/11 05:38:39;;;;;;;4.33;1.23;;;6.70;99.90;6.50;101367.00;;;;4949467;28;87673;-59
2022/10/11 05:41:07;;;;;;;2.70;1.67;;;6.70;99.90;6.50;101351.00;;;;4950599;28;88717;-60
2022/10/11 05:43:33;;;;;;;1.57;1.47;;;6.70;99.90;6.50;101359.00;;;;4952702;28;88605;-58
2022/10/11 05:45:59;;;;;;;1.53;1.07;;;6.70;99.90;6.50;101369.00;;;;4953334;28;99191;-61
2022/10/11 05:48:25;;;;;;;2.20;1.73;;;6.70;99.90;6.50;101362.00;;;;4947909;28;87995;-61
2022/10/11 05:50:52;;;;;;;2.63;2.00;;;6.70;99.90;6.50;101377.00;;;;4943208;28;89058;-61
2022/10/11 05:53:18;;;;;;;5.73;2.30;;;6.70;99.90;6.60;101375.00;;;;4950100;28;88833;-61
2022/10/11 05:55:43;;;;;;;3.97;1.50;;;6.70;99.90;6.70;101382.00;;;;4950302;28;110278;-60
2022/10/11 05:58:13;;;;;;;2.43;2.10;;;6.80;99.90;6.70;101388.00;;;;4952232;28;87860;-61
2022/10/11 06:00:39;;;;;;;4.30;2.37;;;6.80;99.90;6.80;101392.00;;;;4950363;28;88629;-61
2022/10/11 06:03:07;;;;;;;2.63;1.67;;;7.30;99.90;6.90;101396.00;;;;4950758;28;103567;-61
2022/10/11 06:05:34;;;;;;;5.13;2.20;;;7.00;99.90;7.10;101393.00;;;;4950329;28;103399;-60
2022/10/11 06:08:00;;;;;;;2.27;1.80;;;7.30;99.90;7.20;101407.00;;;;4945854;28;87782;-61
2022/10/11 06:10:25;;;;;;;9.30;2.40;;;7.30;99.90;7.40;101406.00;;;;4953638;28;87511;-61
2022/10/11 06:12:51;;;;;;;4.43;1.80;;;7.50;99.90;7.60;101403.00;;;;4945283;28;114914;-61
2022/10/11 06:15:17;;;;;;;2.87;1.50;;;7.60;99.90;7.70;101412.00;;;;4947772;28;111009;-61
2022/10/11 06:17:42;;;;;;;2.10;1.77;;;7.80;99.90;7.90;101424.00;;;;4951695;28;108157;-61
2022/10/11 06:20:09;;;;;;;2.80;2.17;;;7.90;99.90;8.10;101424.00;;;;4951430;28;96902;-60
2022/10/11 06:22:35;;;;;;;2.60;1.40;;;8.10;99.90;8.30;101426.00;;;;4948085;28;88666;-60
2022/10/11 06:25:00;;;;;;;2.03;1.57;;;8.30;99.90;8.50;101427.00;;;;4953084;28;87943;-58
2022/10/11 06:27:26;;;;;;;2.97;1.33;;;8.50;99.90;8.70;101432.00;;;;4949725;28;108581;-60
2022/10/11 06:29:52;;;;;;;3.93;2.27;;;8.70;99.90;8.90;101430.00;;;;4945801;28;88440;-61
2022/10/11 06:32:18;;;;;;;1.40;1.30;;;8.90;99.90;9.10;101443.00;;;;4945384;28;87775;-61
2022/10/11 06:34:43;;;;;;;1.47;1.30;;;9.20;99.90;9.30;101446.00;;;;4941980;28;109200;-60
2022/10/11 06:37:09;;;;;;;2.97;1.37;;;9.40;99.90;9.60;101446.00;;;;4947202;28;108682;-61
2022/10/11 06:39:35;;;;;;;0.80;0.73;;;9.50;99.90;9.80;101451.00;;;;4950231;28;118293;-60
2022/10/11 06:42:00;;;;;;;4.00;1.53;;;9.80;99.90;10.00;101453.00;;;;4949009;28;115594;-60
2022/10/11 06:44:26;;;;;;;1.53;1.37;;;10.00;99.90;10.10;101452.00;;;;4949151;28;97881;-60
2022/10/11 06:46:52;;;;;;;1.70;1.13;;;10.10;99.90;10.30;101463.00;;;;4950662;28;107870;-60
2022/10/11 06:49:18;;;;;;;2.27;1.47;;;10.30;99.90;10.50;101456.00;;;;4951247;28;112309;-60
2022/10/11 06:51:43;;;;;;;1.33;1.23;;;10.40;99.90;10.70;101468.00;;;;4953528;28;88037;-60
2022/10/11 06:54:09;;;;;;;1.17;1.07;;;10.60;99.90;10.90;101471.00;;;;4955406;28;110423;-60
2022/10/11 06:56:35;;;;;;;4.43;1.47;;;10.90;99.90;11.20;101475.00;;;;4949643;28;107655;-60
2022/10/11 06:59:02;;;;;;;2.40;1.40;;;11.10;99.90;11.40;101469.00;;;;4950870;28;116951;-61
2022/10/11 07:01:28;;;;;;;2.27;1.00;;;11.40;99.90;11.60;101486.00;;;;4956251;28;87883;-60
2022/10/11 07:03:56;;;;;;;1.47;1.13;;;11.50;99.90;11.80;101478.00;;;;4949752;28;98296;-60
2022/10/11 07:06:25;;;;;;;2.03;1.13;;;11.80;99.90;12.10;101478.00;;;;4947177;28;88666;-60
2022/10/11 07:08:51;;;;;;;2.03;1.20;;;12.00;99.90;12.30;101481.00;;;;4951652;28;88138;-60
2022/10/11 07:11:22;;;;;;;1.40;1.07;;;12.20;99.90;12.50;101493.00;;;;4951980;28;117585;-61
2022/10/11 07:13:56;;;;;;;1.53;0.97;;;12.50;99.90;12.80;101491.00;;;;4950997;28;87780;-61
2022/10/11 07:16:22;;;;;;;1.57;1.47;;;12.70;99.90;13.10;101492.00;;;;4956265;28;88024;-62
2022/10/11 07:18:52;;;;;;;6.60;1.17;;;13.00;99.90;13.30;101503.00;;;;4949344;28;89002;-61
2022/10/11 07:21:18;;;;;;;1.07;0.93;;;13.20;99.90;13.60;101490.00;;;;4954166;28;87885;-61
2022/10/11 07:23:44;;;;;;;3.20;1.57;;;13.60;99.90;13.90;101502.00;;;;4954363;28;110142;-61
2022/10/11 07:26:10;;;;;;;4.60;1.20;;;13.80;99.90;14.20;101501.00;;;;4954743;28;109817;-60
2022/10/11 07:28:37;;;;;;;4.77;0.93;;;14.10;99.90;14.50;101497.00;;;;4956533;28;88447;-60
2022/10/11 07:31:11;;;;;;;3.60;1.33;;;14.40;99.90;14.70;101505.00;;;;4947254;28;89413;-61
2022/10/11 07:33:37;;;;;;;1.70;0.83;;;14.60;99.90;14.70;101507.00;;;;4950546;28;87894;-61
2022/10/11 07:36:04;;;;;;;1.83;0.73;;;14.80;99.90;14.90;101502.00;;;;4956772;28;91475;-61
2022/10/11 07:38:30;;;;;;;2.00;1.03;;;14.90;99.90;15.10;101514.00;;;;4953510;28;88149;-58
2022/10/11 07:40:56;;;;;;;1.13;1.10;;;15.00;99.90;15.30;101512.00;;;;4950240;28;88299;-59
2022/10/11 07:43:22;;;;;;;1.93;0.73;;;15.20;99.90;15.50;101514.00;;;;4955546;28;88023;-59
2022/10/11 07:45:54;;;;;;;1.92;1.42;;;15.40;99.90;15.80;101512.00;;;;4952905;28;87774;-59
2022/10/11 07:48:20;;;;;;;2.60;1.65;;;15.70;99.90;15.90;101523.00;;;;4953791;28;88134;-59
2022/10/11 07:50:46;;;;;;;3.92;1.30;;;15.90;99.90;16.10;101525.00;;;;4948747;28;98615;-59
2022/10/11 07:53:12;;;;;;;1.02;0.90;;;16.10;99.90;16.30;101530.00;;;;4947699;28;87865;-59
2022/10/11 07:55:41;;;;;;;0.90;0.85;;;16.20;99.90;16.60;101531.00;;;;4950964;28;105264;-59
2022/10/11 07:58:12;;;;;;;1.65;1.20;;;16.50;99.90;16.90;101538.00;;;;4954742;28;88905;-60
2022/10/11 08:00:41;;;;;;;2.35;0.82;;;16.70;99.90;17.10;101531.00;;;;4952022;28;92120;-60
2022/10/11 08:03:06;;;;;;;3.10;1.35;;;17.00;99.90;17.40;101541.00;;;;4951138;28;87503;-59
2022/10/11 08:05:33;;;;;;;1.88;0.90;;;17.20;99.90;17.60;101545.00;;;;4949740;28;103128;-60
2022/10/11 08:07:59;;;;;;;3.05;1.08;;;17.50;99.90;17.80;101551.00;;;;4951754;28;92700;-59
2022/10/11 08:10:25;;;;;;;1.30;1.20;;;17.80;99.90;18.10;101546.00;;;;4942316;28;117445;-60
2022/10/11 08:12:52;;;;;;;1.17;0.93;;;17.90;99.90;18.20;101548.00;;;;4943753;28;87182;-60
2022/10/11 08:15:18;;;;;;;5.65;1.58;;;18.10;99.90;18.20;101541.00;;;;4948019;28;87585;-58
2022/10/11 08:17:45;;;;;;;11.57;1.30;;;18.20;99.90;18.30;101544.00;;;;4951437;28;103413;-60
2022/10/11 08:20:11;;;;;;;2.75;1.13;;;18.30;99.90;18.50;101551.00;;;;4953198;28;92837;-60
2022/10/11 08:22:37;;;;;;;4.20;1.20;;;18.40;99.90;18.80;101547.00;;;;4948668;28;87767;-59
2022/10/11 08:25:03;;;;;;;2.72;1.05;;;18.60;99.90;19.00;101554.00;;;;4950768;28;87847;-60
2022/10/11 08:27:29;;;;;;;6.97;1.02;;;18.80;99.80;19.20;101548.00;;;;4950727;28;103937;-60
2022/10/11 08:29:54;;;;;;;3.00;0.93;;;19.00;98.80;19.30;101552.00;;;;4947524;28;116753;-60
2022/10/11 08:32:20;;;;;;;0.88;0.60;;;19.20;97.70;19.30;101550.00;;;;4949357;28;110420;-59
2022/10/11 08:34:45;;;;;;;5.43;1.92;;;19.10;96.60;19.30;101558.00;;;;4952812;28;104667;-59
2022/10/11 08:37:11;;;;;;;0.98;0.85;;;19.20;95.70;19.40;101558.00;;;;4945838;28;116958;-60
2022/10/11 08:39:37;;;;;;;5.88;1.23;;;19.30;95.70;19.60;101544.00;;;;4951842;28;111730;-59
2022/10/11 08:42:12;;;;;;;2.40;1.42;;;19.40;95.50;19.80;101549.00;;;;4954496;28;109830;-60
2022/10/11 08:44:42;;;;;;;0.90;0.60;;;19.70;95.20;20.20;101557.00;;;;4951432;28;92909;-60
2022/10/11 08:47:29;;;;;;;2.75;1.30;;;19.90;94.70;20.50;101556.00;;;;4954075;28;89581;-60
2022/10/11 08:49:56;;;;;;;2.85;1.45;;;20.20;94.30;20.80;101559.00;;;;4964062;28;110766;-60
2022/10/11 08:52:33;;;;;;;4.03;1.80;;;20.50;93.30;21.00;101560.00;;;;4968429;28;100062;-59
2022/10/11 08:55:17;;;;;;;1.60;1.02;;;20.70;92.50;21.10;101559.00;;;;4954839;28;88041;-59
2022/10/11 08:57:52;;;;;;;1.60;1.00;;;20.90;91.70;21.40;101563.00;;;;4956821;28;110595;-59
2022/10/11 09:00:19;;;;;;;0.73;0.65;;;21.10;91.00;21.60;101570.00;;;;4953789;28;87909;-60
2022/10/11 09:03:22;;;;;;;6.05;1.73;;;21.30;90.00;21.60;101567.00;;;;4955757;28;87036;-60
2022/10/11 09:06:02;;;;;;;4.65;1.70;;;21.50;87.40;21.70;101566.00;;;;4952958;28;88002;-60
2022/10/11 09:09:05;;;;;;;3.50;1.27;;;21.50;85.50;21.60;101573.00;;;;4949605;28;103645;-60
2022/10/11 09:12:10;;;;;;;5.88;1.20;;;21.50;84.70;21.70;101569.00;;;;4942836;28;88857;-60
2022/10/11 09:15:39;;;;;;;1.80;1.20;;;21.60;83.80;21.70;101568.00;;;;4952800;28;87812;-60
2022/10/11 09:18:14;;;;;;;2.35;1.20;;;21.60;81.40;21.80;101568.00;;;;4919681;28;87937;-60
2022/10/11 09:20:50;;;;;;;3.17;1.23;;;21.70;80.20;21.90;101572.00;;;;4944533;28;88070;-60
2022/10/11 09:23:41;;;;;;;2.25;1.45;;;21.80;79.10;22.00;101571.00;;;;4951765;28;89047;-60
2022/10/11 09:26:28;;;;;;;1.45;0.95;;;21.90;78.30;22.20;101577.00;;;;4951182;28;87582;-60
2022/10/11 09:29:22;;;;;;;0.73;0.60;;;22.00;77.40;22.30;101571.00;;;;4960416;28;88000;-60
2022/10/11 09:31:54;;;;;;;3.70;1.10;;;22.20;75.40;22.50;101571.00;;;;4944384;28;88246;-59
2022/10/11 09:34:25;;;;;;;10.07;1.40;;;22.30;73.60;22.70;101580.00;;;;4952979;28;88058;-60
2022/10/11 09:37:16;;;;;;;3.70;1.27;;;22.40;73.60;23.10;101580.00;;;;4952155;28;104277;-60
2022/10/11 09:39:56;;;;;;;1.98;0.60;;;22.70;73.20;23.50;101577.00;;;;4950188;28;88568;-60
2022/10/11 09:42:22;;;;;;;1.73;1.15;;;23.10;70.90;23.70;101575.00;;;;4952611;28;88361;-59
2022/10/11 09:44:50;;;;;;;3.00;0.70;;;23.30;68.50;23.90;101566.00;;;;4950949;28;117231;-59
2022/10/11 09:47:20;;;;;;;2.83;1.20;;;23.40;67.90;24.10;101575.00;;;;4947709;28;98817;-61
2022/10/11 09:50:13;;;;;;;0.98;0.55;;;23.60;66.70;24.00;101575.00;;;;4952178;28;90798;-60
2022/10/11 09:52:52;;;;;;;2.80;0.90;;;23.70;63.50;23.90;101576.00;;;;4942353;28;88824;-60
2022/10/11 09:56:01;;;;;;;2.28;0.90;;;23.60;62.70;23.90;101579.00;;;;4949456;28;88849;-61
2022/10/11 09:58:33;;;;;;;1.85;0.95;;;23.70;61.80;23.90;101576.00;;;;4952203;28;87022;-61
2022/10/11 10:01:12;;;;;;;2.08;0.60;;;23.70;60.80;24.10;101578.00;;;;4952285;28;88039;-60
2022/10/11 10:03:41;;;;;;;0.68;0.55;;;23.70;59.50;24.20;101576.00;;;;4952398;28;88569;-60
2022/10/11 10:06:15;;;;;;;1.10;0.47;;;23.80;59.30;24.30;101577.00;;;;4964180;28;89143;-58
2022/10/11 10:08:46;;;;;;;0.50;0.32;;;23.90;57.40;24.50;101587.00;;;;4945498;28;87637;-60
2022/10/11 10:11:13;;;;;;;1.08;0.68;;;24.10;56.90;24.70;101588.00;;;;4944344;28;87766;-60
2022/10/11 10:13:54;;;;;;;0.80;0.50;;;24.30;55.90;24.70;101593.00;;;;4953607;28;87941;-58
2022/10/11 10:16:32;;;;;;;2.05;0.68;;;24.30;55.00;24.70;101592.00;;;;4945927;28;87894;-60
2022/10/11 10:19:05;;;;;;;2.58;0.93;;;24.30;55.10;24.90;101587.00;;;;4966414;28;88501;-60
2022/10/11 10:21:42;;;;;;;0.60;0.60;;;24.40;54.90;25.10;101590.00;;;;4956194;28;87646;-60
2022/10/11 10:24:28;;;;;;;1.92;0.55;;;24.70;54.60;25.40;101586.00;;;;4971687;28;91103;-59
2022/10/11 10:27:20;;;;;;;1.63;0.70;;;24.90;54.10;25.50;101593.00;;;;4954191;28;99553;-60
2022/10/11 10:30:09;;;;;;;2.75;0.77;;;25.10;51.90;25.10;101594.00;;;;4954856;28;92557;-60
2022/10/11 10:32:58;;;;;;;0.90;0.73;;;25.00;51.30;24.20;101590.00;;;;4954243;28;88839;-60
2022/10/11 10:35:48;;;;;;;2.03;0.82;;;24.30;50.80;23.60;101588.00;;;;4953631;28;88739;-60
2022/10/11 10:38:42;;;;;;;4.03;0.85;;;23.60;51.80;23.60;101592.00;;;;4957081;28;87936;-60
2022/10/11 10:41:14;;;;;;;5.78;0.82;;;23.40;51.40;23.40;101585.00;;;;4970602;28;101691;-60
2022/10/11 10:43:42;;;;;;;2.30;0.95;;;23.20;51.40;23.40;101593.00;;;;4952259;28;87611;-60
2022/10/11 10:46:22;;;;;;;1.20;0.60;;;23.20;52.30;23.70;101588.00;;;;4948537;28;98989;-60
2022/10/11 10:49:24;;;;;;;3.55;0.60;;;23.30;52.70;24.10;101586.00;;;;4954333;28;88009;-60
2022/10/11 10:52:39;;;;;;;5.60;0.65;;;23.60;52.40;24.40;101583.00;;;;4955225;28;97145;-60
2022/10/11 10:55:34;;;;;;;1.00;0.47;;;23.90;51.70;24.50;101587.00;;;;4954887;28;87797;-60
2022/10/11 10:58:21;;;;;;;1.17;0.60;;;24.00;51.20;24.60;101591.00;;;;4970357;28;104091;-60
2022/10/11 11:01:07;;;;;;;2.28;0.82;;;24.20;51.00;24.80;101587.00;;;;4953553;28;88610;-59
2022/10/11 11:03:49;;;;;;;3.88;0.63;;;24.30;50.30;24.80;101584.00;;;;4968563;28;101801;-60
2022/10/11 11:06:37;;;;;;;0.82;0.50;;;24.40;49.70;24.80;101582.00;;;;4953637;28;87963;-60
2022/10/11 11:09:39;;;;;;;0.73;0.52;;;24.40;48.60;24.70;101587.00;;;;4947865;28;88525;-59
2022/10/11 11:12:30;;;;;;;1.42;0.95;;;24.30;46.70;24.60;101582.00;;;;4942686;28;101060;-60